Accueil
METAR-TAF:

METAR-TAF

Aéroports :

Aérodrome de Londres Biggin Hill

Londres Biggin Hill, Angleterre

latitude: 51-19N, longitude: 000-02E, altitude: 183 m

Observation

Le bulletin a été fait il y a 30 minutes, à 08:20 UTC
Vent 4 kt de ouest/sud-ouest
Température 1°C
Humidité 93%
Pression 1042 hPa
Visibilité: 9000 m

METAR: EGKB 210820Z 24004KT 9000 NSC 01/00 Q1042

Heure: 08:50 (08:50 UTC)

Prévision

Le bulletin a été fait il y a 47 minutes, à 08:03 UTC
Prévision valable du 21 à 09 UTC au 21 à 18 UTC
Vent 5 kt de nord-ouest
Visibilité 10 km ou plus
pas de nuages en-dessous de 1500 mètres et pas de cumulonimbus.
Probabilité 30% :
Temporairement
du 21 à 09 UTC au 21 à 11 UTC
Visibilité: 3000 m
Nuages fragmentés à une hauteur de 300 ft
brume

TAF: EGKB 210803Z 2109/2118 31005KT CAVOK PROB30 TEMPO 2109/2111 3000 BR BKN003

Observations et prévisions météorologiques de plus de 4000 aéroports (messages METAR et TAF).

Les stations disponibles sont représentées par des disques jaunes et rouges sur la carte.

Passer la souris dessus pour voir le nom de la station.

Cliquer dessus pour voir les observations et prévisions météorologiques.

Pour changer de carte: cliquez sur les boutons verts avec une croix noire pour zoomer, sur le bouton vert avec un tiret pour effectuer un zoom arrière, ou sur les flèches vertes pour les cartes adjacentes.


METAR-TAF: